sensor_id;sensor_type;location;lat;lon;timestamp;pressure;altitude;pressure_sealevel;temperature;humidity
79131;BME280;72396;45.194;9.142;2024-01-30T00:01:11;102804.53;;;4.83;66.90
79131;BME280;72396;45.194;9.142;2024-01-30T00:03:37;102809.56;;;4.75;66.97
79131;BME280;72396;45.194;9.142;2024-01-30T00:06:05;102806.31;;;4.86;67.36
79131;BME280;72396;45.194;9.142;2024-01-30T00:08:31;102814.22;;;4.87;67.41
79131;BME280;72396;45.194;9.142;2024-01-30T00:10:56;102820.63;;;5.00;67.04
79131;BME280;72396;45.194;9.142;2024-01-30T00:13:21;102807.88;;;4.77;66.97
79131;BME280;72396;45.194;9.142;2024-01-30T00:15:48;102819.56;;;4.93;67.21
79131;BME280;72396;45.194;9.142;2024-01-30T00:18:13;102817.00;;;4.95;66.98
79131;BME280;72396;45.194;9.142;2024-01-30T00:20:39;102818.06;;;5.03;66.76
79131;BME280;72396;45.194;9.142;2024-01-30T00:23:04;102813.75;;;5.05;66.47
79131;BME280;72396;45.194;9.142;2024-01-30T00:25:30;102807.72;;;5.08;66.24
79131;BME280;72396;45.194;9.142;2024-01-30T00:27:56;102821.88;;;5.18;66.11
79131;BME280;72396;45.194;9.142;2024-01-30T00:30:21;102807.53;;;5.00;66.59
79131;BME280;72396;45.194;9.142;2024-01-30T00:32:47;102800.41;;;4.93;66.99
79131;BME280;72396;45.194;9.142;2024-01-30T00:35:12;102815.38;;;5.00;66.86
79131;BME280;72396;45.194;9.142;2024-01-30T00:37:37;102812.81;;;5.02;66.66
79131;BME280;72396;45.194;9.142;2024-01-30T00:40:03;102821.03;;;5.17;66.91
79131;BME280;72396;45.194;9.142;2024-01-30T00:42:29;102816.09;;;4.93;67.43
79131;BME280;72396;45.194;9.142;2024-01-30T00:44:54;102807.22;;;4.51;68.25
79131;BME280;72396;45.194;9.142;2024-01-30T00:47:20;102816.72;;;4.15;69.41
79131;BME280;72396;45.194;9.142;2024-01-30T00:49:45;102818.13;;;4.34;68.90
79131;BME280;72396;45.194;9.142;2024-01-30T00:52:11;102810.88;;;4.58;68.99
79131;BME280;72396;45.194;9.142;2024-01-30T00:54:37;102821.13;;;4.50;69.32
79131;BME280;72396;45.194;9.142;2024-01-30T00:57:02;102817.94;;;4.62;68.44
79131;BME280;72396;45.194;9.142;2024-01-30T00:59:27;102823.50;;;4.40;69.38
79131;BME280;72396;45.194;9.142;2024-01-30T01:01:53;102825.06;;;4.34;70.03
79131;BME280;72396;45.194;9.142;2024-01-30T01:04:18;102823.88;;;4.22;70.22
79131;BME280;72396;45.194;9.142;2024-01-30T01:06:43;102817.06;;;4.28;69.93
79131;BME280;72396;45.194;9.142;2024-01-30T01:09:11;102815.81;;;4.13;70.39
79131;BME280;72396;45.194;9.142;2024-01-30T01:11:37;102821.34;;;4.58;69.26
79131;BME280;72396;45.194;9.142;2024-01-30T01:14:03;102809.41;;;4.69;68.25
79131;BME280;72396;45.194;9.142;2024-01-30T01:16:28;102819.63;;;4.95;68.01
79131;BME280;72396;45.194;9.142;2024-01-30T01:18:54;102809.72;;;4.81;67.55
79131;BME280;72396;45.194;9.142;2024-01-30T01:21:19;102811.59;;;4.87;67.68
79131;BME280;72396;45.194;9.142;2024-01-30T01:23:44;102801.16;;;4.89;67.44
79131;BME280;72396;45.194;9.142;2024-01-30T01:26:10;102804.47;;;4.46;67.94
79131;BME280;72396;45.194;9.142;2024-01-30T01:28:35;102817.31;;;4.72;67.26
79131;BME280;72396;45.194;9.142;2024-01-30T01:31:01;102805.34;;;4.45;68.08
79131;BME280;72396;45.194;9.142;2024-01-30T01:33:33;102813.50;;;4.59;67.05
79131;BME280;72396;45.194;9.142;2024-01-30T01:36:00;102821.72;;;4.73;67.43
79131;BME280;72396;45.194;9.142;2024-01-30T01:38:27;102812.97;;;4.73;67.07
79131;BME280;72396;45.194;9.142;2024-01-30T01:40:53;102825.44;;;4.83;66.64
79131;BME280;72396;45.194;9.142;2024-01-30T01:43:18;102800.16;;;4.83;66.84
79131;BME280;72396;45.194;9.142;2024-01-30T01:45:45;102817.50;;;4.78;67.27
79131;BME280;72396;45.194;9.142;2024-01-30T01:48:11;102810.25;;;4.68;66.85
79131;BME280;72396;45.194;9.142;2024-01-30T01:50:38;102802.16;;;4.57;67.01
79131;BME280;72396;45.194;9.142;2024-01-30T01:53:05;102805.22;;;4.07;69.19
79131;BME280;72396;45.194;9.142;2024-01-30T01:55:32;102819.72;;;4.63;67.28
79131;BME280;72396;45.194;9.142;2024-01-30T01:57:58;102802.28;;;4.63;67.21
79131;BME280;72396;45.194;9.142;2024-01-30T02:00:23;102818.06;;;4.66;66.83
79131;BME280;72396;45.194;9.142;2024-01-30T02:02:50;102813.97;;;4.76;66.32
79131;BME280;72396;45.194;9.142;2024-01-30T02:05:17;102820.69;;;4.68;66.27
79131;BME280;72396;45.194;9.142;2024-01-30T02:07:43;102805.81;;;4.64;66.89
79131;BME280;72396;45.194;9.142;2024-01-30T02:10:09;102813.97;;;4.43;67.44
79131;BME280;72396;45.194;9.142;2024-01-30T02:12:37;102805.81;;;4.64;67.14
79131;BME280;72396;45.194;9.142;2024-01-30T02:15:03;102819.25;;;4.79;66.53
79131;BME280;72396;45.194;9.142;2024-01-30T02:17:30;102815.00;;;4.84;66.26
79131;BME280;72396;45.194;9.142;2024-01-30T02:19:55;102815.47;;;4.68;66.40
79131;BME280;72396;45.194;9.142;2024-01-30T02:22:21;102805.81;;;4.64;66.57
79131;BME280;72396;45.194;9.142;2024-01-30T02:24:47;102804.09;;;4.64;66.50
79131;BME280;72396;45.194;9.142;2024-01-30T02:27:12;102803.44;;;4.73;66.75
79131;BME280;72396;45.194;9.142;2024-01-30T02:29:37;102804.88;;;4.62;66.43
79131;BME280;72396;45.194;9.142;2024-01-30T02:32:03;102819.19;;;4.76;66.76
79131;BME280;72396;45.194;9.142;2024-01-30T02:34:28;102799.59;;;4.60;66.58
79131;BME280;72396;45.194;9.142;2024-01-30T02:36:54;102814.69;;;4.71;65.98
79131;BME280;72396;45.194;9.142;2024-01-30T02:39:19;102818.25;;;4.74;65.94
79131;BME280;72396;45.194;9.142;2024-01-30T02:41:45;102815.53;;;4.69;66.58
79131;BME280;72396;45.194;9.142;2024-01-30T02:44:10;102816.41;;;4.70;65.95
79131;BME280;72396;45.194;9.142;2024-01-30T02:46:35;102804.03;;;4.63;66.16
79131;BME280;72396;45.194;9.142;2024-01-30T02:49:01;102814.69;;;4.71;65.33
79131;BME280;72396;45.194;9.142;2024-01-30T02:51:27;102807.50;;;4.63;65.64
79131;BME280;72396;45.194;9.142;2024-01-30T02:53:52;102810.84;;;4.56;66.25
79131;BME280;72396;45.194;9.142;2024-01-30T02:56:17;102808.34;;;4.61;66.84
79131;BME280;72396;45.194;9.142;2024-01-30T02:58:43;102806.41;;;4.53;66.61
79131;BME280;72396;45.194;9.142;2024-01-30T03:01:08;102808.41;;;4.64;65.74
79131;BME280;72396;45.194;9.142;2024-01-30T03:03:33;102800.56;;;4.64;66.67
79131;BME280;72396;45.194;9.142;2024-01-30T03:06:01;102810.25;;;4.68;66.50
79131;BME280;72396;45.194;9.142;2024-01-30T03:08:27;102800.44;;;4.58;66.20
79131;BME280;72396;45.194;9.142;2024-01-30T03:10:52;102804.56;;;4.49;65.72
79131;BME280;72396;45.194;9.142;2024-01-30T03:13:18;102789.81;;;4.51;65.58
79131;BME280;72396;45.194;9.142;2024-01-30T03:15:43;102797.56;;;4.48;65.32
79131;BME280;72396;45.194;9.142;2024-01-30T03:18:08;102803.13;;;4.61;65.25
79131;BME280;72396;45.194;9.142;2024-01-30T03:20:34;102794.47;;;4.30;65.40
79131;BME280;72396;45.194;9.142;2024-01-30T03:23:00;102794.03;;;4.46;66.19
79131;BME280;72396;45.194;9.142;2024-01-30T03:25:25;102795.53;;;4.38;65.79
79131;BME280;72396;45.194;9.142;2024-01-30T03:27:51;102804.22;;;4.35;65.61
79131;BME280;72396;45.194;9.142;2024-01-30T03:30:16;102819.38;;;4.50;65.81
79131;BME280;72396;45.194;9.142;2024-01-30T03:32:42;102797.31;;;4.39;65.18
79131;BME280;72396;45.194;9.142;2024-01-30T03:35:08;102809.00;;;4.52;65.06
79131;BME280;72396;45.194;9.142;2024-01-30T03:37:34;102800.88;;;4.41;64.79
79131;BME280;72396;45.194;9.142;2024-01-30T03:39:59;102801.53;;;4.32;64.90
79131;BME280;72396;45.194;9.142;2024-01-30T03:42:24;102804.34;;;4.40;65.40
79131;BME280;72396;45.194;9.142;2024-01-30T03:44:50;102811.22;;;4.38;65.73
79131;BME280;72396;45.194;9.142;2024-01-30T03:47:18;102804.22;;;4.37;65.37
79131;BME280;72396;45.194;9.142;2024-01-30T03:49:44;102802.44;;;4.34;65.89
79131;BME280;72396;45.194;9.142;2024-01-30T03:52:09;102802.72;;;4.45;65.84
79131;BME280;72396;45.194;9.142;2024-01-30T03:54:35;102784.31;;;4.40;65.83
79131;BME280;72396;45.194;9.142;2024-01-30T03:57:00;102773.63;;;4.31;66.36
79131;BME280;72396;45.194;9.142;2024-01-30T03:59:25;102784.16;;;4.34;66.20
79131;BME280;72396;45.194;9.142;2024-01-30T04:01:51;102789.25;;;4.30;66.82
79131;BME280;72396;45.194;9.142;2024-01-30T04:04:17;102790.22;;;4.33;66.20
79131;BME280;72396;45.194;9.142;2024-01-30T04:06:43;102793.63;;;4.31;66.04
79131;BME280;72396;45.194;9.142;2024-01-30T04:09:09;102793.91;;;4.41;66.43
79131;BME280;72396;45.194;9.142;2024-01-30T04:11:34;102788.81;;;4.46;65.90
79131;BME280;72396;45.194;9.142;2024-01-30T04:14:00;102786.31;;;4.51;66.21
79131;BME280;72396;45.194;9.142;2024-01-30T04:16:25;102793.88;;;4.40;66.14
79131;BME280;72396;45.194;9.142;2024-01-30T04:18:51;102774.63;;;4.36;66.20
79131;BME280;72396;45.194;9.142;2024-01-30T04:21:16;102776.34;;;4.36;66.03
79131;BME280;72396;45.194;9.142;2024-01-30T04:23:42;102777.25;;;4.38;66.66
79131;BME280;72396;45.194;9.142;2024-01-30T04:26:07;102782.41;;;4.35;66.28
79131;BME280;72396;45.194;9.142;2024-01-30T04:28:33;102776.53;;;4.42;66.34
79131;BME280;72396;45.194;9.142;2024-01-30T04:30:58;102787.19;;;4.51;66.71
79131;BME280;72396;45.194;9.142;2024-01-30T04:33:23;102782.72;;;4.47;66.75
79131;BME280;72396;45.194;9.142;2024-01-30T04:35:49;102773.84;;;4.40;66.77
79131;BME280;72396;45.194;9.142;2024-01-30T04:38:14;102783.59;;;4.46;66.51
79131;BME280;72396;45.194;9.142;2024-01-30T04:40:40;102783.72;;;4.52;65.85
79131;BME280;72396;45.194;9.142;2024-01-30T04:43:06;102778.28;;;4.43;66.03
79131;BME280;72396;45.194;9.142;2024-01-30T04:45:31;102780.72;;;4.37;65.65
79131;BME280;72396;45.194;9.142;2024-01-30T04:47:56;102782.41;;;4.33;65.56
79131;BME280;72396;45.194;9.142;2024-01-30T04:50:23;102784.16;;;4.34;65.51
79131;BME280;72396;45.194;9.142;2024-01-30T04:52:48;102783.03;;;4.24;66.07
79131;BME280;72396;45.194;9.142;2024-01-30T04:55:14;102776.59;;;4.11;66.41
79131;BME280;72396;45.194;9.142;2024-01-30T04:57:39;102771.56;;;4.19;66.53
79131;BME280;72396;45.194;9.142;2024-01-30T05:00:05;102773.50;;;4.26;66.29
79131;BME280;72396;45.194;9.142;2024-01-30T05:02:30;102782.00;;;4.19;66.77
79131;BME280;72396;45.194;9.142;2024-01-30T05:04:56;102776.31;;;4.34;65.99
79131;BME280;72396;45.194;9.142;2024-01-30T05:07:21;102760.28;;;4.20;66.27
79131;BME280;72396;45.194;9.142;2024-01-30T05:09:47;102783.97;;;4.26;66.27
79131;BME280;72396;45.194;9.142;2024-01-30T05:12:12;102779.47;;;4.22;66.42
79131;BME280;72396;45.194;9.142;2024-01-30T05:14:38;102782.94;;;4.21;66.25
79131;BME280;72396;45.194;9.142;2024-01-30T05:17:03;102779.97;;;4.07;66.29
79131;BME280;72396;45.194;9.142;2024-01-30T05:19:29;102791.59;;;4.19;66.74
79131;BME280;72396;45.194;9.142;2024-01-30T05:21:54;102788.84;;;4.14;67.17
79131;BME280;72396;45.194;9.142;2024-01-30T05:24:20;102791.47;;;4.14;67.07
79131;BME280;72396;45.194;9.142;2024-01-30T05:26:45;102793.00;;;4.07;67.14
79131;BME280;72396;45.194;9.142;2024-01-30T05:29:10;102797.97;;;4.30;66.66
79131;BME280;72396;45.194;9.142;2024-01-30T05:31:36;102803.03;;;4.24;66.69
79131;BME280;72396;45.194;9.142;2024-01-30T05:34:01;102783.25;;;4.34;66.24
79131;BME280;72396;45.194;9.142;2024-01-30T05:36:26;102801.81;;;4.45;66.39
79131;BME280;72396;45.194;9.142;2024-01-30T05:38:52;102805.97;;;4.36;66.33
79131;BME280;72396;45.194;9.142;2024-01-30T05:41:18;102789.47;;;4.37;66.59
79131;BME280;72396;45.194;9.142;2024-01-30T05:43:43;102806.69;;;4.31;66.65
79131;BME280;72396;45.194;9.142;2024-01-30T05:46:09;102783.97;;;4.28;66.64
79131;BME280;72396;45.194;9.142;2024-01-30T05:48:34;102799.66;;;4.28;66.53
79131;BME280;72396;45.194;9.142;2024-01-30T05:51:00;102790.75;;;4.20;66.56
79131;BME280;72396;45.194;9.142;2024-01-30T05:53:26;102803.81;;;4.21;66.64
79131;BME280;72396;45.194;9.142;2024-01-30T05:55:51;102803.50;;;4.41;65.87
79131;BME280;72396;45.194;9.142;2024-01-30T05:58:17;102796.25;;;4.31;66.37
79131;BME280;72396;45.194;9.142;2024-01-30T06:00:42;102800.34;;;4.21;66.42
79131;BME280;72396;45.194;9.142;2024-01-30T06:03:07;102795.78;;;4.13;66.59
79131;BME280;72396;45.194;9.142;2024-01-30T06:05:33;102803.81;;;4.21;66.57
79131;BME280;72396;45.194;9.142;2024-01-30T06:07:58;102810.50;;;4.10;66.88
79131;BME280;72396;45.194;9.142;2024-01-30T06:10:23;102798.28;;;4.09;66.56
79131;BME280;72396;45.194;9.142;2024-01-30T06:12:49;102801.31;;;4.24;66.04
79131;BME280;72396;45.194;9.142;2024-01-30T06:15:14;102807.19;;;4.17;66.42
79131;BME280;72396;45.194;9.142;2024-01-30T06:17:40;102814.13;;;4.15;66.64
79131;BME280;72396;45.194;9.142;2024-01-30T06:20:06;102800.97;;;4.12;66.45
79131;BME280;72396;45.194;9.142;2024-01-30T06:22:31;102809.59;;;4.09;66.92
79131;BME280;72396;45.194;9.142;2024-01-30T06:24:56;102777.72;;;3.89;66.73
79131;BME280;72396;45.194;9.142;2024-01-30T06:27:22;102808.75;;;4.09;67.05
79131;BME280;72396;45.194;9.142;2024-01-30T06:29:47;102808.63;;;4.06;66.63
79131;BME280;72396;45.194;9.142;2024-01-30T06:32:13;102814.47;;;3.97;66.38
79131;BME280;72396;45.194;9.142;2024-01-30T06:34:38;102812.84;;;4.01;67.06
79131;BME280;72396;45.194;9.142;2024-01-30T06:37:05;102810.31;;;4.04;66.61
79131;BME280;72396;45.194;9.142;2024-01-30T06:39:30;102815.88;;;4.16;66.60
79131;BME280;72396;45.194;9.142;2024-01-30T06:41:56;102807.28;;;4.20;66.36
79131;BME280;72396;45.194;9.142;2024-01-30T06:44:21;102808.19;;;4.22;66.19
79131;BME280;72396;45.194;9.142;2024-01-30T06:46:46;102822.44;;;4.34;65.45
79131;BME280;72396;45.194;9.142;2024-01-30T06:49:12;102823.22;;;4.30;65.41
79131;BME280;72396;45.194;9.142;2024-01-30T06:51:37;102828.56;;;4.34;65.51
79131;BME280;72396;45.194;9.142;2024-01-30T06:54:03;102817.72;;;4.19;65.84
79131;BME280;72396;45.194;9.142;2024-01-30T06:56:28;102813.44;;;4.22;66.11
79131;BME280;72396;45.194;9.142;2024-01-30T06:58:53;102817.84;;;4.23;65.62
79131;BME280;72396;45.194;9.142;2024-01-30T07:01:19;102834.63;;;4.33;65.91
79131;BME280;72396;45.194;9.142;2024-01-30T07:03:44;102822.25;;;4.26;65.76
79131;BME280;72396;45.194;9.142;2024-01-30T07:06:10;102830.84;;;4.22;66.18
79131;BME280;72396;45.194;9.142;2024-01-30T07:08:38;102823.06;;;4.23;66.39
79131;BME280;72396;45.194;9.142;2024-01-30T07:11:05;102821.94;;;4.15;66.36
79131;BME280;72396;45.194;9.142;2024-01-30T07:13:31;102832.66;;;4.24;66.35
79131;BME280;72396;45.194;9.142;2024-01-30T07:15:56;102829.84;;;4.17;66.38
79131;BME280;72396;45.194;9.142;2024-01-30T07:18:21;102830.91;;;4.25;66.02
79131;BME280;72396;45.194;9.142;2024-01-30T07:20:47;102821.09;;;4.16;65.99
79131;BME280;72396;45.194;9.142;2024-01-30T07:23:13;102828.09;;;4.17;65.70
79131;BME280;72396;45.194;9.142;2024-01-30T07:25:41;102837.03;;;4.25;65.96
79131;BME280;72396;45.194;9.142;2024-01-30T07:28:07;102837.06;;;4.27;65.05
79131;BME280;72396;45.194;9.142;2024-01-30T07:30:34;102825.69;;;4.25;65.91
79131;BME280;72396;45.194;9.142;2024-01-30T07:33:00;102830.06;;;4.26;65.04
79131;BME280;72396;45.194;9.142;2024-01-30T07:35:25;102824.63;;;4.17;65.18
79131;BME280;72396;45.194;9.142;2024-01-30T07:37:50;102842.00;;;4.16;65.59
79131;BME280;72396;45.194;9.142;2024-01-30T07:40:17;102834.88;;;4.10;64.91
79131;BME280;72396;45.194;9.142;2024-01-30T07:42:42;102849.00;;;4.17;65.06
79131;BME280;72396;45.194;9.142;2024-01-30T07:45:08;102851.47;;;4.12;65.18
79131;BME280;72396;45.194;9.142;2024-01-30T07:47:33;102833.25;;;4.14;65.63
79131;BME280;72396;45.194;9.142;2024-01-30T07:49:59;102826.97;;;4.07;65.70
79131;BME280;72396;45.194;9.142;2024-01-30T07:52:24;102850.84;;;4.21;64.58
79131;BME280;72396;45.194;9.142;2024-01-30T07:54:50;102848.91;;;4.14;65.15
79131;BME280;72396;45.194;9.142;2024-01-30T07:57:16;102839.88;;;4.03;64.47
79131;BME280;72396;45.194;9.142;2024-01-30T07:59:43;102857.31;;;4.04;64.98
79131;BME280;72396;45.194;9.142;2024-01-30T08:02:12;102860.84;;;4.06;65.14
79131;BME280;72396;45.194;9.142;2024-01-30T08:04:38;102833.94;;;4.07;64.87
79131;BME280;72396;45.194;9.142;2024-01-30T08:07:03;102857.53;;;4.11;64.76
79131;BME280;72396;45.194;9.142;2024-01-30T08:09:28;102859.44;;;4.17;65.31
79131;BME280;72396;45.194;9.142;2024-01-30T08:11:54;102851.69;;;4.20;65.20
79131;BME280;72396;45.194;9.142;2024-01-30T08:14:19;102852.09;;;4.34;64.70
79131;BME280;72396;45.194;9.142;2024-01-30T08:16:44;102862.25;;;4.23;64.44
79131;BME280;72396;45.194;9.142;2024-01-30T08:19:10;102840.78;;;4.03;64.26
79131;BME280;72396;45.194;9.142;2024-01-30T08:21:35;102862.97;;;4.19;64.32
79131;BME280;72396;45.194;9.142;2024-01-30T08:24:05;102865.38;;;4.11;64.11
79131;BME280;72396;45.194;9.142;2024-01-30T08:26:34;102865.16;;;4.04;64.16
79131;BME280;72396;45.194;9.142;2024-01-30T08:29:00;102868.88;;;4.12;64.65
79131;BME280;72396;45.194;9.142;2024-01-30T08:31:26;102871.63;;;4.17;63.95
79131;BME280;72396;45.194;9.142;2024-01-30T08:33:52;102859.56;;;4.22;64.12
79131;BME280;72396;45.194;9.142;2024-01-30T08:36:17;102868.38;;;4.25;64.14
79131;BME280;72396;45.194;9.142;2024-01-30T08:38:43;102863.88;;;4.20;64.41
79131;BME280;72396;45.194;9.142;2024-01-30T08:41:08;102868.38;;;4.25;64.32
79131;BME280;72396;45.194;9.142;2024-01-30T08:43:34;102867.78;;;4.36;64.84
79131;BME280;72396;45.194;9.142;2024-01-30T08:46:00;102858.03;;;4.30;64.08
79131;BME280;72396;45.194;9.142;2024-01-30T08:48:26;102840.56;;;4.28;64.03
79131;BME280;72396;45.194;9.142;2024-01-30T08:50:51;102877.72;;;4.49;63.86
79131;BME280;72396;45.194;9.142;2024-01-30T08:53:16;102874.25;;;4.50;63.61
79131;BME280;72396;45.194;9.142;2024-01-30T08:55:42;102875.25;;;4.54;63.86
79131;BME280;72396;45.194;9.142;2024-01-30T08:58:07;102868.69;;;4.38;64.41
79131;BME280;72396;45.194;9.142;2024-01-30T09:00:33;102880.47;;;4.54;64.14
79131;BME280;72396;45.194;9.142;2024-01-30T09:02:58;102884.84;;;4.55;64.63
79131;BME280;72396;45.194;9.142;2024-01-30T09:05:23;102879.69;;;4.57;64.73
79131;BME280;72396;45.194;9.142;2024-01-30T09:07:49;102871.72;;;4.52;63.95
79131;BME280;72396;45.194;9.142;2024-01-30T09:10:14;102881.66;;;4.67;64.67
79131;BME280;72396;45.194;9.142;2024-01-30T09:12:40;102872.84;;;4.62;64.18
79131;BME280;72396;45.194;9.142;2024-01-30T09:15:05;102881.03;;;4.76;63.91
79131;BME280;72396;45.194;9.142;2024-01-30T09:17:30;102886.25;;;4.76;63.38
79131;BME280;72396;45.194;9.142;2024-01-30T09:19:56;102877.88;;;4.55;64.43
79131;BME280;72396;45.194;9.142;2024-01-30T09:22:21;102867.19;;;4.46;64.43
79131;BME280;72396;45.194;9.142;2024-01-30T09:24:47;102871.00;;;4.58;64.03
79131;BME280;72396;45.194;9.142;2024-01-30T09:27:12;102889.59;;;4.70;64.06
79131;BME280;72396;45.194;9.142;2024-01-30T09:29:37;102883.50;;;4.71;63.77
79131;BME280;72396;45.194;9.142;2024-01-30T09:32:04;102889.56;;;4.68;64.65
79131;BME280;72396;45.194;9.142;2024-01-30T09:34:29;102890.47;;;4.71;64.36
79131;BME280;72396;45.194;9.142;2024-01-30T09:36:55;102891.72;;;4.51;64.49
79131;BME280;72396;45.194;9.142;2024-01-30T09:39:20;102890.28;;;4.63;64.24
79131;BME280;72396;45.194;9.142;2024-01-30T09:41:52;102890.28;;;4.63;64.55
79131;BME280;72396;45.194;9.142;2024-01-30T09:44:20;102888.75;;;4.71;65.09
79131;BME280;72396;45.194;9.142;2024-01-30T09:46:47;102883.03;;;4.52;65.31
79131;BME280;72396;45.194;9.142;2024-01-30T09:49:13;102885.09;;;4.64;65.03
79131;BME280;72396;45.194;9.142;2024-01-30T09:51:39;102881.47;;;4.59;65.14
79131;BME280;72396;45.194;9.142;2024-01-30T09:54:07;102895.00;;;4.78;64.51
79131;BME280;72396;45.194;9.142;2024-01-30T09:56:33;102903.78;;;4.80;64.30
79131;BME280;72396;45.194;9.142;2024-01-30T09:58:58;102902.34;;;4.91;64.31
79131;BME280;72396;45.194;9.142;2024-01-30T10:01:25;102892.38;;;4.76;64.27
79131;BME280;72396;45.194;9.142;2024-01-30T10:03:50;102896.28;;;4.59;65.03
79131;BME280;72396;45.194;9.142;2024-01-30T10:06:18;102897.56;;;4.75;65.19
79131;BME280;72396;45.194;9.142;2024-01-30T10:08:43;102909.00;;;4.80;64.69
79131;BME280;72396;45.194;9.142;2024-01-30T10:11:09;102906.53;;;4.84;64.28
79131;BME280;72396;45.194;9.142;2024-01-30T10:13:35;102909.97;;;4.82;64.99
79131;BME280;72396;45.194;9.142;2024-01-30T10:16:00;102904.53;;;4.74;65.59
79131;BME280;72396;45.194;9.142;2024-01-30T10:18:28;102895.91;;;4.78;65.04
79131;BME280;72396;45.194;9.142;2024-01-30T10:20:54;102901.94;;;4.76;64.87
79131;BME280;72396;45.194;9.142;2024-01-30T10:23:19;102902.97;;;4.81;65.15
79131;BME280;72396;45.194;9.142;2024-01-30T10:25:45;102896.97;;;4.87;65.62
79131;BME280;72396;45.194;9.142;2024-01-30T10:28:11;102891.19;;;4.98;64.78
79131;BME280;72396;45.194;9.142;2024-01-30T10:30:36;102870.09;;;4.92;64.75
79131;BME280;72396;45.194;9.142;2024-01-30T10:33:02;102891.09;;;4.95;64.76
79131;BME280;72396;45.194;9.142;2024-01-30T10:35:27;102891.06;;;4.94;65.34
79131;BME280;72396;45.194;9.142;2024-01-30T10:37:56;102883.03;;;4.86;64.99
79131;BME280;72396;45.194;9.142;2024-01-30T10:40:27;102830.31;;;4.69;65.00
79131;BME280;72396;45.194;9.142;2024-01-30T10:42:55;102865.13;;;5.03;65.02
79131;BME280;72396;45.194;9.142;2024-01-30T10:45:21;102849.44;;;5.03;64.86
79131;BME280;72396;45.194;9.142;2024-01-30T10:47:53;102860.16;;;5.12;64.52
79131;BME280;72396;45.194;9.142;2024-01-30T10:50:19;102847.97;;;5.15;65.02
79131;BME280;72396;45.194;9.142;2024-01-30T10:52:46;102840.91;;;5.10;64.68
79131;BME280;72396;45.194;9.142;2024-01-30T10:55:13;102834.94;;;5.16;65.71
79131;BME280;72396;45.194;9.142;2024-01-30T10:57:40;102852.13;;;5.43;65.08
79131;BME280;72396;45.194;9.142;2024-01-30T11:00:11;102846.88;;;5.42;64.84
79131;BME280;72396;45.194;9.142;2024-01-30T11:02:42;102829.72;;;5.16;65.34
79131;BME280;72396;45.194;9.142;2024-01-30T11:05:09;102830.13;;;5.35;65.45
79131;BME280;72396;45.194;9.142;2024-01-30T11:07:35;102803.88;;;5.30;65.81
79131;BME280;72396;45.194;9.142;2024-01-30T11:10:04;102828.38;;;5.34;66.16
79131;BME280;72396;45.194;9.142;2024-01-30T11:12:31;102827.81;;;5.49;65.39
79131;BME280;72396;45.194;9.142;2024-01-30T11:15:04;102820.94;;;5.54;65.30
79131;BME280;72396;45.194;9.142;2024-01-30T11:20:14;102816.03;;;5.30;66.17
79131;BME280;72396;45.194;9.142;2024-01-30T11:22:42;102815.38;;;5.38;65.89
79131;BME280;72396;45.194;9.142;2024-01-30T11:25:11;102818.06;;;5.42;66.68
79131;BME280;72396;45.194;9.142;2024-01-30T11:27:37;102801.47;;;5.39;66.70
79131;BME280;72396;45.194;9.142;2024-01-30T11:30:03;102812.84;;;5.43;66.18
79131;BME280;72396;45.194;9.142;2024-01-30T11:32:29;102799.06;;;5.50;66.20
79131;BME280;72396;45.194;9.142;2024-01-30T11:34:55;102799.06;;;5.50;65.88
79131;BME280;72396;45.194;9.142;2024-01-30T11:37:21;102807.09;;;5.58;66.33
79131;BME280;72396;45.194;9.142;2024-01-30T11:39:50;102800.31;;;5.69;66.39
79131;BME280;72396;45.194;9.142;2024-01-30T11:42:16;102786.00;;;5.52;67.23
79131;BME280;72396;45.194;9.142;2024-01-30T11:44:46;102784.44;;;5.60;66.42
79131;BME280;72396;45.194;9.142;2024-01-30T11:47:12;102790.63;;;5.64;66.38
79131;BME280;72396;45.194;9.142;2024-01-30T11:49:37;102784.50;;;5.63;66.56
79131;BME280;72396;45.194;9.142;2024-01-30T11:52:03;102776.75;;;5.68;66.73
79131;BME280;72396;45.194;9.142;2024-01-30T11:54:29;102772.59;;;5.79;66.13
79131;BME280;72396;45.194;9.142;2024-01-30T11:56:54;102777.66;;;5.72;66.32
79131;BME280;72396;45.194;9.142;2024-01-30T11:59:20;102781.03;;;5.64;66.34
79131;BME280;72396;45.194;9.142;2024-01-30T12:01:46;102778.56;;;5.72;65.89
79131;BME280;72396;45.194;9.142;2024-01-30T12:04:12;102756.66;;;5.67;66.58
79131;BME280;72396;45.194;9.142;2024-01-30T12:06:38;102774.50;;;5.88;66.55
79131;BME280;72396;45.194;9.142;2024-01-30T12:09:03;102759.78;;;5.93;66.87
79131;BME280;72396;45.194;9.142;2024-01-30T12:11:29;102750.97;;;5.90;67.05
79131;BME280;72396;45.194;9.142;2024-01-30T12:13:55;102745.84;;;5.94;66.78
79131;BME280;72396;45.194;9.142;2024-01-30T12:16:21;102734.41;;;5.89;66.78
79131;BME280;72396;45.194;9.142;2024-01-30T12:18:47;102749.41;;;6.00;66.40
79131;BME280;72396;45.194;9.142;2024-01-30T12:21:16;102738.69;;;5.86;66.47
79131;BME280;72396;45.194;9.142;2024-01-30T12:23:42;102745.75;;;5.90;67.09
79131;BME280;72396;45.194;9.142;2024-01-30T12:26:07;102734.53;;;5.97;67.11
79131;BME280;72396;45.194;9.142;2024-01-30T12:28:33;102737.69;;;5.79;67.53
79131;BME280;72396;45.194;9.142;2024-01-30T12:31:03;102726.41;;;5.83;67.68
79131;BME280;72396;45.194;9.142;2024-01-30T12:33:29;102732.00;;;6.02;66.85
79131;BME280;72396;45.194;9.142;2024-01-30T12:35:56;102737.25;;;6.02;67.09
79131;BME280;72396;45.194;9.142;2024-01-30T12:38:22;102704.97;;;6.03;66.34
79131;BME280;72396;45.194;9.142;2024-01-30T12:40:49;102716.22;;;5.97;67.19
79131;BME280;72396;45.194;9.142;2024-01-30T12:43:14;102712.91;;;6.07;67.07
79131;BME280;72396;45.194;9.142;2024-01-30T12:45:41;102709.34;;;6.04;66.66
79131;BME280;72396;45.194;9.142;2024-01-30T12:48:06;102706.66;;;6.01;67.37
79131;BME280;72396;45.194;9.142;2024-01-30T12:50:32;102704.09;;;6.04;67.44
79131;BME280;72396;45.194;9.142;2024-01-30T12:53:00;102696.50;;;6.18;66.86
79131;BME280;72396;45.194;9.142;2024-01-30T12:55:31;102696.59;;;6.22;67.44